| time (UTC) | temp C | wind direction | speed KPH | gust KPH | rain 1hr cm | rain 24hr cm | rain mn cm | humidity % | barometer mb |
| 20260504175155 | 10 | 204 | 4.8 | 17.7 | 0.00 | 0.20 | 0.00 | 51 | 994.7 |
| 20260504174655 | 9 | 38 | 3.2 | 19.3 | 0.00 | 0.20 | 0.00 | 53 | 994.7 |
| 20260504174155 | 9 | 35 | 4.8 | 19.3 | 0.00 | 0.20 | 0.00 | 53 | 994.7 |
| 20260504173655 | 9 | 49 | 4.8 | 11.3 | 0.00 | 0.20 | 0.00 | 54 | 994.8 |
| 20260504173155 | 9 | 9 | 6.4 | 11.3 | 0.00 | 0.20 | 0.00 | 54 | 994.8 |
| 20260504172655 | 9 | 68 | 6.4 | 16.1 | 0.00 | 0.20 | 0.00 | 53 | 994.8 |
| 20260504172155 | 10 | 194 | 6.4 | 20.9 | 0.00 | 0.20 | 0.00 | 53 | 994.4 |
| 20260504171655 | 10 | 200 | 4.8 | 17.7 | 0.00 | 0.20 | 0.00 | 53 | 994.4 |
| 20260504171155 | 10 | 333 | 4.8 | 19.3 | 0.00 | 0.20 | 0.00 | 53 | 994.4 |
| 20260504170655 | 10 | 53 | 6.4 | 11.3 | 0.00 | 0.20 | 0.00 | 54 | 994.0 |
| 20260504170155 | 10 | 199 | 6.4 | 19.3 | 0.00 | 0.20 | 0.00 | 53 | 994.0 |
| 20260504160155 | 10 | 57 | 3.2 | 8.0 | 0.00 | 0.20 | 0.00 | 54 | 993.8 |
| 20260504150656 | 10 | 5 | 6.4 | 11.3 | 0.00 | 0.20 | 0.00 | 52 | 994.0 |
| 20260504150156 | 10 | 250 | 4.8 | 16.1 | 0.00 | 0.20 | 0.00 | 52 | 994.0 |
| 20260504141156 | 9 | 278 | 1.6 | 9.7 | 0.00 | 0.20 | 0.00 | 57 | 994.7 |
| 20260504140656 | 9 | 0 | 3.2 | 9.7 | 0.00 | 0.20 | 0.00 | 59 | 994.6 |
| 20260504140156 | 9 | 103 | 1.6 | 9.7 | 0.00 | 0.20 | 0.00 | 61 | 994.6 |
| 20260504130656 | 8 | 218 | 0.0 | 0.0 | 0.00 | 0.20 | 0.00 | 59 | 993.2 |
| 20260504130156 | 8 | 218 | 0.0 | 0.0 | 0.00 | 0.20 | 0.00 | 58 | 993.2 |
| 20260504120156 | 8 | 229 | 0.0 | 1.6 | 0.00 | 0.20 | 0.00 | 57 | 991.9 |
| 20260504110656 | 11 | 282 | 3.2 | 16.1 | 0.00 | 0.20 | 0.00 | 51 | 989.6 |
| 20260504110156 | 11 | 313 | 1.6 | 4.8 | 0.00 | 0.20 | 0.00 | 49 | 989.6 |
| 20260504100156 | 12 | 217 | 0.0 | 1.6 | 0.00 | 0.20 | 0.00 | 45 | 988.8 |
| 20260504081656 | 12 | 225 | 3.2 | 6.4 | 0.00 | 0.20 | 0.00 | 43 | 987.5 |
| 20260504081156 | 12 | 225 | 4.8 | 9.7 | 0.00 | 0.20 | 0.00 | 43 | 987.5 |
| 20260504080656 | 12 | 213 | 3.2 | 6.4 | 0.00 | 0.20 | 0.00 | 44 | 987.8 |
| 20260504080156 | 12 | 213 | 3.2 | 8.0 | 0.00 | 0.20 | 0.00 | 44 | 987.8 |
| 20260504070157 | 12 | 229 | 6.4 | 11.3 | 0.00 | 0.20 | 0.20 | 48 | 988.2 |
| 20260504060157 | 13 | 223 | 8.0 | 17.7 | 0.00 | 0.20 | 0.20 | 47 | 987.8 |
| 20260504050657 | 13 | 215 | 3.2 | 6.4 | 0.00 | 0.20 | 0.20 | 48 | 988.9 |
| 20260504050157 | 13 | 214 | 3.2 | 6.4 | 0.00 | 0.20 | 0.20 | 48 | 988.9 |
| 20260504045657 | 13 | 215 | 4.8 | 6.4 | 0.00 | 0.20 | 0.20 | 48 | 988.9 |
| 20260504045157 | 13 | 215 | 4.8 | 6.4 | 0.00 | 0.20 | 0.20 | 48 | 988.9 |
| 20260504044657 | 13 | 215 | 4.8 | 8.0 | 0.00 | 0.20 | 0.20 | 48 | 988.9 |
| 20260504044157 | 13 | 216 | 4.8 | 8.0 | 0.00 | 0.20 | 0.20 | 47 | 988.9 |
| 20260504043657 | 13 | 217 | 3.2 | 8.0 | 0.00 | 0.20 | 0.20 | 47 | 988.9 |
| 20260504043157 | 13 | 229 | 1.6 | 6.4 | 0.00 | 0.20 | 0.20 | 48 | 988.9 |
| 20260504042657 | 13 | 225 | 0.0 | 4.8 | 0.00 | 0.20 | 0.20 | 48 | 988.9 |
| 20260504042157 | 13 | 219 | 0.0 | 1.6 | 0.00 | 0.20 | 0.20 | 48 | 989.1 |
| 20260504041657 | 14 | 219 | 1.6 | 4.8 | 0.00 | 0.20 | 0.20 | 48 | 989.1 |
| 20260504041157 | 14 | 219 | 1.6 | 3.2 | 0.00 | 0.20 | 0.20 | 48 | 989.1 |
| 20260504040657 | 15 | 219 | 4.8 | 11.3 | 0.00 | 0.20 | 0.20 | 47 | 989.1 |
| 20260504040157 | 15 | 219 | 4.8 | 16.1 | 0.00 | 0.20 | 0.20 | 46 | 989.1 |
| 20260504035657 | 15 | 223 | 6.4 | 9.7 | 0.00 | 0.20 | 0.20 | 46 | 989.1 |
| 20260504035157 | 15 | 213 | 6.4 | 11.3 | 0.00 | 0.20 | 0.20 | 46 | 989.1 |
| 20260504034657 | 15 | 224 | 6.4 | 14.5 | 0.00 | 0.20 | 0.20 | 46 | 989.1 |
| 20260504034157 | 14 | 219 | 4.8 | 11.3 | 0.00 | 0.20 | 0.20 | 47 | 989.1 |
| 20260504033657 | 14 | 232 | 4.8 | 12.9 | 0.00 | 0.20 | 0.20 | 47 | 989.2 |
| 20260504033157 | 14 | 218 | 3.2 | 6.4 | 0.00 | 0.20 | 0.20 | 48 | 989.2 |
| 20260504032657 | 14 | 219 | 3.2 | 6.4 | 0.00 | 0.20 | 0.20 | 48 | 989.2 |
| 20260504032157 | 13 | 221 | 3.2 | 8.0 | 0.00 | 0.20 | 0.20 | 49 | 989.7 |
| 20260504031657 | 13 | 220 | 3.2 | 6.4 | 0.00 | 0.20 | 0.20 | 52 | 989.7 |
| 20260504031157 | 13 | 221 | 4.8 | 6.4 | 0.00 | 0.20 | 0.20 | 51 | 989.7 |
| 20260504030657 | 12 | 221 | 4.8 | 8.0 | 0.00 | 0.20 | 0.20 | 53 | 990.0 |
| 20260504030157 | 12 | 221 | 4.8 | 8.0 | 0.00 | 0.20 | 0.20 | 57 | 990.0 |
| 20260504025657 | 11 | 223 | 3.2 | 6.4 | 0.00 | 0.20 | 0.20 | 61 | 990.0 |
| 20260504025157 | 11 | 223 | 3.2 | 3.2 | 0.00 | 0.20 | 0.20 | 65 | 989.9 |
| 20260504024657 | 11 | 223 | 3.2 | 4.8 | 0.00 | 0.20 | 0.20 | 66 | 989.9 |
| 20260504024157 | 11 | 223 | 1.6 | 4.8 | 0.00 | 0.20 | 0.20 | 66 | 989.9 |
| 20260504023657 | 11 | 223 | 0.0 | 3.2 | 0.00 | 0.20 | 0.20 | 66 | 989.8 |
| 20260504023157 | 11 | 223 | 0.0 | 0.0 | 0.00 | 0.20 | 0.20 | 66 | 989.8 |
| 20260504022657 | 11 | 223 | 1.6 | 0.0 | 0.00 | 0.20 | 0.20 | 65 | 989.8 |
| 20260504022157 | 11 | 223 | 1.6 | 3.2 | 0.00 | 0.20 | 0.20 | 66 | 990.0 |
| 20260504021657 | 11 | 223 | 1.6 | 3.2 | 0.00 | 0.20 | 0.20 | 67 | 990.0 |
| 20260504021157 | 11 | 223 | 1.6 | 3.2 | 0.00 | 0.20 | 0.20 | 68 | 990.0 |
| 20260504020657 | 11 | 223 | 1.6 | 4.8 | 0.00 | 0.20 | 0.20 | 71 | 990.1 |
| 20260504020157 | 11 | 223 | 1.6 | 1.6 | 0.00 | 0.20 | 0.20 | 71 | 990.1 |
| 20260504015657 | 11 | 223 | 3.2 | 3.2 | 0.00 | 0.20 | 0.20 | 70 | 990.1 |
| 20260504015157 | 12 | 223 | 3.2 | 4.8 | 0.00 | 0.20 | 0.20 | 70 | 990.0 |
| 20260504014657 | 12 | 223 | 3.2 | 4.8 | 0.00 | 0.20 | 0.20 | 69 | 990.0 |
| 20260504014157 | 12 | 223 | 1.6 | 4.8 | 0.00 | 0.20 | 0.20 | 69 | 990.0 |
| 20260504013657 | 12 | 223 | 0.0 | 0.0 | 0.00 | 0.20 | 0.20 | 68 | 989.9 |
| 20260504013157 | 13 | 223 | 0.0 | 0.0 | 0.00 | 0.20 | 0.20 | 67 | 989.9 |
| 20260504012657 | 13 | 223 | 0.0 | 0.0 | 0.00 | 0.20 | 0.20 | 67 | 989.9 |
| 20260504012157 | 13 | 223 | 0.0 | 0.0 | 0.00 | 0.20 | 0.20 | 65 | 990.2 |
| 20260504011657 | 13 | 223 | 0.0 | 0.0 | 0.00 | 0.20 | 0.20 | 64 | 990.2 |
| 20260504011157 | 13 | 223 | 0.0 | 0.0 | 0.00 | 0.20 | 0.20 | 63 | 990.2 |
| 20260504010657 | 14 | 223 | 0.0 | 0.0 | 0.00 | 0.20 | 0.20 | 63 | 990.1 |
| 20260504010157 | 14 | 223 | 0.0 | 0.0 | 0.00 | 0.20 | 0.20 | 63 | 990.1 |
| 20260504005657 | 15 | 223 | 0.0 | 0.0 | 0.00 | 0.20 | 0.20 | 62 | 990.1 |
| 20260504005157 | 15 | 223 | 0.0 | 0.0 | 0.00 | 0.20 | 0.20 | 59 | 989.9 |
| 20260504004657 | 15 | 223 | 0.0 | 0.0 | 0.00 | 0.20 | 0.20 | 59 | 989.9 |
| 20260504004157 | 16 | 223 | 0.0 | 0.0 | 0.00 | 0.20 | 0.20 | 57 | 989.9 |
| 20260504003657 | 16 | 223 | 0.0 | 0.0 | 0.00 | 0.20 | 0.20 | 56 | 990.2 |
| 20260504003157 | 16 | 223 | 1.6 | 3.2 | 0.00 | 0.20 | 0.20 | 54 | 990.2 |
| 20260504002657 | 16 | 223 | 1.6 | 3.2 | 0.00 | 0.20 | 0.20 | 54 | 990.2 |
| 20260504002157 | 16 | 223 | 1.6 | 6.4 | 0.00 | 0.20 | 0.20 | 54 | 990.9 |
| 20260504001657 | 16 | 222 | 1.6 | 4.8 | 0.00 | 0.20 | 0.20 | 55 | 990.9 |
| 20260504001157 | 16 | 222 | 1.6 | 4.8 | 0.00 | 0.20 | 0.20 | 54 | 990.9 |
| 20260504000657 | 16 | 222 | 1.6 | 3.2 | 0.00 | 0.20 | 0.20 | 55 | 991.2 |
| 20260504000157 | 16 | 222 | 3.2 | 6.4 | 0.00 | 0.20 | 0.20 | 55 | 991.2 |
| 20260503235657 | 16 | 225 | 3.2 | 9.7 | 0.00 | 0.20 | 0.20 | 55 | 991.2 |
| 20260503235157 | 16 | 219 | 3.2 | 6.4 | 0.00 | 0.20 | 0.20 | 56 | 991.5 |
| 20260503234657 | 16 | 175 | 1.6 | 9.7 | 0.00 | 0.20 | 0.20 | 55 | 991.5 |
| 20260503234157 | 16 | 173 | 1.6 | 4.8 | 0.00 | 0.20 | 0.20 | 56 | 991.5 |
| 20260503233657 | 16 | 174 | 1.6 | 6.4 | 0.00 | 0.20 | 0.20 | 57 | 991.5 |
| 20260503233157 | 16 | 175 | 3.2 | 6.4 | 0.00 | 0.20 | 0.20 | 56 | 991.5 |
| 20260503232657 | 15 | 167 | 3.2 | 6.4 | 0.00 | 0.20 | 0.20 | 58 | 991.5 |
| 20260503232157 | 15 | 217 | 4.8 | 9.7 | 0.00 | 0.20 | 0.20 | 58 | 992.3 |
| 20260503231657 | 15 | 213 | 4.8 | 14.5 | 0.00 | 0.20 | 0.20 | 60 | 992.3 |
| 20260503231157 | 15 | 206 | 4.8 | 11.3 | 0.00 | 0.20 | 0.20 | 59 | 992.3 |
| 20260503230657 | 15 | 216 | 4.8 | 8.0 | 0.00 | 0.20 | 0.20 | 60 | 992.8 |
| 20260503230157 | 14 | 229 | 4.8 | 8.0 | 0.00 | 0.20 | 0.20 | 62 | 992.8 |
| 20260503225657 | 13 | 223 | 4.8 | 8.0 | 0.00 | 0.20 | 0.20 | 64 | 992.8 |
| 20260503225157 | 13 | 233 | 4.8 | 14.5 | 0.00 | 0.20 | 0.20 | 65 | 993.4 |
| 20260503224657 | 13 | 210 | 4.8 | 14.5 | 0.00 | 0.20 | 0.20 | 66 | 993.4 |
| 20260503224158 | 13 | 232 | 6.4 | 14.5 | 0.00 | 0.20 | 0.20 | 68 | 993.4 |
| 20260503223657 | 12 | 238 | 4.8 | 16.1 | 0.00 | 0.20 | 0.20 | 69 | 994.0 |
| 20260503223157 | 12 | 204 | 4.8 | 14.5 | 0.00 | 0.20 | 0.20 | 72 | 994.0 |
| 20260503222657 | 12 | 215 | 4.8 | 6.4 | 0.00 | 0.20 | 0.20 | 73 | 994.0 |
| 20260503222157 | 12 | 206 | 8.0 | 14.5 | 0.00 | 0.20 | 0.20 | 74 | 994.7 |
| 20260503221657 | 12 | 202 | 8.0 | 14.5 | 0.00 | 0.20 | 0.20 | 75 | 994.7 |
| 20260503221158 | 12 | 205 | 6.4 | 19.3 | 0.00 | 0.20 | 0.20 | 74 | 994.7 |
| 20260503220657 | 12 | 213 | 3.2 | 9.7 | 0.00 | 0.20 | 0.20 | 78 | 994.9 |
| 20260503220158 | 11 | 201 | 3.2 | 4.8 | 0.00 | 0.20 | 0.20 | 80 | 994.9 |
| 20260503215658 | 11 | 201 | 3.2 | 6.4 | 0.00 | 0.20 | 0.20 | 80 | 994.9 |
| 20260503215158 | 11 | 196 | 3.2 | 6.4 | 0.00 | 0.20 | 0.20 | 81 | 995.2 |
| 20260503214658 | 11 | 195 | 1.6 | 6.4 | 0.00 | 0.20 | 0.20 | 83 | 995.2 |
| 20260503214158 | 11 | 192 | 1.6 | 3.2 | 0.00 | 0.20 | 0.20 | 84 | 995.2 |
| 20260503213658 | 11 | 192 | 1.6 | 4.8 | 0.03 | 0.20 | 0.20 | 85 | 995.5 |
| 20260503213158 | 11 | 192 | 0.0 | 1.6 | 0.08 | 0.20 | 0.20 | 88 | 995.5 |
| 20260503212658 | 11 | 192 | 1.6 | 3.2 | 0.13 | 0.20 | 0.20 | 89 | 995.5 |
| 20260503212158 | 11 | 192 | 3.2 | 4.8 | 0.18 | 0.20 | 0.20 | 89 | 995.3 |
| 20260503211658 | 10 | 192 | 3.2 | 4.8 | 0.18 | 0.20 | 0.20 | 89 | 995.3 |
| 20260503211158 | 10 | 192 | 1.6 | 4.8 | 0.18 | 0.20 | 0.20 | 89 | 995.3 |
| 20260503210658 | 10 | 192 | 0.0 | 0.0 | 0.18 | 0.20 | 0.20 | 88 | 996.3 |
| 20260503210158 | 10 | 192 | 0.0 | 0.0 | 0.18 | 0.20 | 0.20 | 87 | 996.3 |
| 20260503205658 | 10 | 192 | 0.0 | 0.0 | 0.18 | 0.20 | 0.20 | 85 | 996.3 |
| 20260503205158 | 11 | 192 | 0.0 | 0.0 | 0.18 | 0.20 | 0.20 | 84 | 995.8 |
| 20260503204658 | 11 | 192 | 0.0 | 0.0 | 0.18 | 0.20 | 0.20 | 81 | 995.8 |
| 20260503204158 | 11 | 192 | 0.0 | 1.6 | 0.18 | 0.20 | 0.20 | 77 | 995.8 |
| 20260503203658 | 12 | 192 | 0.0 | 4.8 | 0.15 | 0.18 | 0.18 | 72 | 995.6 |
| 20260503203158 | 13 | 192 | 1.6 | 3.2 | 0.10 | 0.13 | 0.13 | 68 | 995.6 |
| 20260503202658 | 14 | 86 | 3.2 | 6.4 | 0.10 | 0.13 | 0.13 | 65 | 995.6 |
| 20260503202158 | 15 | 80 | 3.2 | 4.8 | 0.00 | 0.03 | 0.03 | 54 | 994.3 |
| 20260503201658 | 16 | 80 | 3.2 | 9.7 | 0.00 | 0.03 | 0.03 | 49 | 994.3 |
| 20260503201158 | 16 | 78 | 4.8 | 9.7 | 0.00 | 0.03 | 0.03 | 47 | 994.3 |
| 20260503200658 | 16 | 77 | 4.8 | 11.3 | 0.00 | 0.03 | 0.03 | 46 | 994.4 |
| 20260503200158 | 17 | 55 | 4.8 | 11.3 | 0.00 | 0.03 | 0.03 | 46 | 994.4 |
| 20260503195658 | 17 | 107 | 4.8 | 11.3 | 0.00 | 0.03 | 0.03 | 48 | 994.4 |
| 20260503195158 | 16 | 146 | 3.2 | 9.7 | 0.00 | 0.03 | 0.03 | 48 | 994.8 |
| 20260503194658 | 16 | 175 | 1.6 | 8.0 | 0.00 | 0.03 | 0.03 | 50 | 994.8 |
| 20260503194158 | 16 | 178 | 1.6 | 6.4 | 0.00 | 0.03 | 0.03 | 50 | 994.8 |
| 20260503193658 | 16 | 63 | 0.0 | 6.4 | 0.00 | 0.03 | 0.03 | 50 | 994.9 |
| 20260503193158 | 16 | 63 | 0.0 | 3.2 | 0.00 | 0.03 | 0.03 | 53 | 994.9 |
| 20260503192658 | 16 | 63 | 0.0 | 4.8 | 0.00 | 0.03 | 0.03 | 52 | 994.9 |
| 20260503192158 | 16 | 61 | 0.0 | 0.0 | 0.03 | 0.03 | 0.03 | 48 | 995.2 |
| 20260503191658 | 16 | 61 | 1.6 | 0.0 | 0.03 | 0.03 | 0.03 | 50 | 995.2 |
| 20260503191158 | 16 | 61 | 1.6 | 4.8 | 0.03 | 0.03 | 0.03 | 51 | 995.2 |
| 20260503190658 | 16 | 61 | 3.2 | 3.2 | 0.03 | 0.03 | 0.03 | 52 | 995.3 |
| 20260503190158 | 16 | 74 | 4.8 | 14.5 | 0.03 | 0.03 | 0.03 | 51 | 995.3 |
| 20260503185658 | 16 | 74 | 4.8 | 9.7 | 0.03 | 0.03 | 0.03 | 50 | 995.3 |
| 20260503185158 | 16 | 96 | 3.2 | 6.4 | 0.03 | 0.03 | 0.03 | 58 | 995.8 |
| 20260503184658 | 15 | 153 | 1.6 | 6.4 | 0.03 | 0.03 | 0.03 | 52 | 995.8 |
| 20260503184158 | 15 | 207 | 0.0 | 0.0 | 0.03 | 0.03 | 0.03 | 52 | 995.8 |
| 20260503183658 | 15 | 207 | 0.0 | 3.2 | 0.03 | 0.03 | 0.03 | 56 | 996.3 |
| 20260503183158 | 15 | 207 | 0.0 | 4.8 | 0.03 | 0.03 | 0.03 | 63 | 996.3 |
| 20260503182658 | 15 | 211 | 0.0 | 4.8 | 0.03 | 0.03 | 0.03 | 68 | 996.3 |
| 20260503182158 | 15 | 211 | 1.6 | 4.8 | 0.00 | 0.00 | 0.00 | 58 | 995.7 |
| 20260503181658 | 16 | 211 | 1.6 | 9.7 | 0.00 | 0.00 | 0.00 | 54 | 995.7 |
| 20260503181158 | 17 | 278 | 1.6 | 9.7 | 0.00 | 0.00 | 0.00 | 48 | 995.7 |
| 20260503180658 | 17 | 319 | 1.6 | 3.2 | 0.00 | 0.00 | 0.00 | 42 | 995.7 |
| 20260503180158 | 17 | 318 | 1.6 | 3.2 | 0.00 | 0.00 | 0.00 | 40 | 995.7 |
| 20260503175658 | 17 | 317 | 3.2 | 9.7 | 0.00 | 0.00 | 0.00 | 40 | 995.7 |